createdAt,value
2023-03-15T00:00:07.585Z,7.00
2023-03-15T00:02:55.762Z,7.50
2023-03-15T00:05:23.652Z,8.40
2023-03-15T00:07:51.822Z,9.00
2023-03-15T00:10:19.946Z,7.40
2023-03-15T00:12:48.344Z,8.20
2023-03-15T00:15:16.455Z,8.60
2023-03-15T00:17:45.147Z,8.50
2023-03-15T00:20:17.009Z,7.60
2023-03-15T00:22:45.262Z,6.40
2023-03-15T00:25:13.593Z,4.90
2023-03-15T00:27:41.768Z,2.30
2023-03-15T00:30:10.317Z,2.20
2023-03-15T00:32:38.429Z,2.00
2023-03-15T00:35:06.635Z,2.60
2023-03-15T00:37:37.670Z,2.20
2023-03-15T00:40:09.566Z,2.40
2023-03-15T00:42:39.795Z,2.20
2023-03-15T00:45:09.099Z,2.70
2023-03-15T00:47:37.057Z,2.10
2023-03-15T00:50:05.402Z,2.00
2023-03-15T00:52:36.897Z,1.40
2023-03-15T00:55:05.841Z,1.20
2023-03-15T00:57:35.345Z,1.20
2023-03-15T01:00:05.114Z,1.00
2023-03-15T01:02:33.832Z,1.60
2023-03-15T01:05:02.088Z,1.20
2023-03-15T01:07:33.685Z,1.00
2023-03-15T01:10:03.458Z,1.20
2023-03-15T01:12:33.105Z,1.00
2023-03-15T01:15:03.114Z,1.20
2023-03-15T01:17:31.423Z,0.90
2023-03-15T01:20:00.272Z,0.90
2023-03-15T01:22:28.291Z,0.90
2023-03-15T01:24:56.862Z,0.90
2023-03-15T01:27:24.938Z,0.70
2023-03-15T01:29:55.542Z,0.80
2023-03-15T01:32:23.601Z,0.70
2023-03-15T01:34:52.883Z,0.70
2023-03-15T01:37:24.705Z,0.60
2023-03-15T01:39:53.193Z,0.80
2023-03-15T01:42:21.522Z,0.80
2023-03-15T01:44:58.032Z,0.70
2023-03-15T01:47:26.184Z,1.00
2023-03-15T01:50:02.742Z,1.10
2023-03-15T01:52:36.056Z,1.10
2023-03-15T01:55:19.509Z,1.20
2023-03-15T01:58:14.326Z,1.20
2023-03-15T02:00:44.627Z,1.00
2023-03-15T02:03:38.878Z,1.20
2023-03-15T02:06:10.553Z,1.50
2023-03-15T02:09:09.694Z,1.00
2023-03-15T02:11:39.866Z,1.40
2023-03-15T02:14:12.819Z,0.90
2023-03-15T02:16:44.531Z,1.00
2023-03-15T02:19:36.953Z,1.10
2023-03-15T02:22:29.100Z,0.90
2023-03-15T02:25:17.061Z,0.80
2023-03-15T02:27:45.519Z,0.90
2023-03-15T02:30:16.011Z,0.90
2023-03-15T02:32:45.372Z,0.80
2023-03-15T02:35:26.773Z,0.80
2023-03-15T02:37:54.856Z,0.90
2023-03-15T02:40:25.350Z,0.80
2023-03-15T02:43:07.383Z,1.20
2023-03-15T02:45:36.923Z,1.10
2023-03-15T02:48:06.691Z,0.90
2023-03-15T02:50:34.808Z,1.20
2023-03-15T02:53:05.995Z,0.90
2023-03-15T02:55:34.259Z,1.40
2023-03-15T02:58:03.122Z,1.60
2023-03-15T03:00:32.332Z,1.70
2023-03-15T03:03:00.409Z,1.90
2023-03-15T03:05:53.925Z,1.90
2023-03-15T03:08:22.858Z,1.50
2023-03-15T03:10:51.647Z,1.80
2023-03-15T03:13:19.624Z,1.60
2023-03-15T03:15:50.249Z,1.40
2023-03-15T03:18:18.220Z,1.70
2023-03-15T03:20:47.420Z,1.80
2023-03-15T03:23:15.584Z,1.40
2023-03-15T03:25:45.798Z,1.70
2023-03-15T03:28:13.815Z,1.90
2023-03-15T03:30:41.989Z,1.90
2023-03-15T03:33:09.971Z,2.30
2023-03-15T03:35:38.287Z,2.30
2023-03-15T03:38:06.346Z,2.50
2023-03-15T03:40:39.795Z,3.30
2023-03-15T03:43:08.961Z,3.20
2023-03-15T03:45:37.077Z,2.90
2023-03-15T03:48:06.293Z,3.60
2023-03-15T03:50:35.431Z,3.30
2023-03-15T03:53:03.837Z,3.60
2023-03-15T03:55:34.454Z,4.30
2023-03-15T03:58:02.470Z,4.60
2023-03-15T04:05:11.308Z,4.50
2023-03-15T04:07:41.561Z,5.70
2023-03-15T04:10:14.875Z,5.70
2023-03-15T04:12:45.837Z,6.10
2023-03-15T04:15:15.403Z,6.00
2023-03-15T04:17:43.607Z,6.10
2023-03-15T04:20:13.050Z,5.10
2023-03-15T04:22:49.867Z,5.50
2023-03-15T04:25:44.025Z,5.10
2023-03-15T04:28:12.012Z,5.40
2023-03-15T04:34:52.256Z,4.80
2023-03-15T04:37:42.081Z,4.80
2023-03-15T04:40:23.528Z,4.30
2023-03-15T04:43:03.043Z,4.80
2023-03-15T04:45:46.991Z,4.70
2023-03-15T04:48:46.214Z,5.20
2023-03-15T04:51:30.909Z,4.70
2023-03-15T04:54:11.256Z,5.00
2023-03-15T04:56:58.117Z,5.10
2023-03-15T04:59:43.276Z,6.10
2023-03-15T05:02:51.414Z,5.20
2023-03-15T05:05:34.113Z,5.60
2023-03-15T05:08:35.660Z,4.80
2023-03-15T05:11:21.257Z,5.00
2023-03-15T05:13:51.180Z,5.30
2023-03-15T05:16:57.899Z,4.80
2023-03-15T05:19:49.253Z,4.70
2023-03-15T05:22:36.386Z,5.70
2023-03-15T05:25:14.907Z,4.90
2023-03-15T05:28:17.626Z,5.10
2023-03-15T05:30:47.554Z,4.70
2023-03-15T05:33:30.785Z,5.10
2023-03-15T05:36:16.867Z,5.40
2023-03-15T05:39:02.633Z,5.40
2023-03-15T05:41:48.105Z,5.70
2023-03-15T05:44:40.730Z,6.10
2023-03-15T05:47:24.717Z,5.40
2023-03-15T05:50:07.002Z,5.90
2023-03-15T05:52:51.899Z,5.60
2023-03-15T05:55:35.445Z,5.30
2023-03-15T05:58:07.809Z,5.80
2023-03-15T06:00:55.888Z,5.30
2023-03-15T06:03:34.088Z,6.00
2023-03-15T06:06:08.661Z,5.50
2023-03-15T06:08:38.587Z,5.50
2023-03-15T06:11:05.501Z,6.40
2023-03-15T06:13:33.090Z,6.30
2023-03-15T06:16:00.533Z,5.90
2023-03-15T06:18:27.760Z,6.70
2023-03-15T06:20:54.864Z,6.00
2023-03-15T06:23:21.624Z,6.40
2023-03-15T06:25:49.114Z,6.70
2023-03-15T06:28:16.111Z,6.40
2023-03-15T06:30:51.769Z,6.00
2023-03-15T06:33:19.445Z,5.50
2023-03-15T06:35:47.075Z,5.70
2023-03-15T06:38:14.512Z,6.10
2023-03-15T06:40:41.744Z,5.90
2023-03-15T06:43:08.576Z,5.30
2023-03-15T06:45:35.842Z,5.90
2023-03-15T06:48:04.092Z,5.80
2023-03-15T06:50:44.209Z,5.90
2023-03-15T06:53:13.593Z,5.30
2023-03-15T06:55:40.424Z,5.20
2023-03-15T06:58:07.252Z,5.80
2023-03-15T07:00:33.854Z,5.60
2023-03-15T07:03:02.383Z,5.70
2023-03-15T07:05:29.718Z,5.20
2023-03-15T07:07:56.689Z,4.80
2023-03-15T07:10:23.936Z,5.00
2023-03-15T07:12:52.048Z,5.00
2023-03-15T07:15:18.854Z,4.80
2023-03-15T07:17:45.407Z,5.20
2023-03-15T07:20:12.468Z,5.70
2023-03-15T07:22:39.420Z,5.00
2023-03-15T07:25:06.956Z,4.50
2023-03-15T07:27:33.679Z,5.20
2023-03-15T07:30:00.597Z,4.60
2023-03-15T07:32:27.598Z,5.00
2023-03-15T07:34:57.590Z,5.00
2023-03-15T07:37:24.480Z,5.00
2023-03-15T07:39:51.175Z,6.20
2023-03-15T07:42:17.914Z,4.80
2023-03-15T07:44:49.377Z,5.10
2023-03-15T07:47:16.417Z,4.40
2023-03-15T07:49:43.219Z,5.30
2023-03-15T07:52:10.201Z,5.10
2023-03-15T07:54:37.040Z,5.70
2023-03-15T07:57:04.612Z,4.50
2023-03-15T07:59:31.659Z,3.80
2023-03-15T08:02:00.221Z,3.50
2023-03-15T08:04:28.094Z,4.70
2023-03-15T08:06:54.743Z,4.00
2023-03-15T08:09:21.321Z,3.60
2023-03-15T08:11:48.195Z,4.40
2023-03-15T08:14:14.835Z,4.20
2023-03-15T08:16:41.465Z,3.60
2023-03-15T08:19:08.648Z,3.90
2023-03-15T08:21:35.374Z,3.80
2023-03-15T08:24:01.927Z,3.80
2023-03-15T08:26:28.471Z,4.40
2023-03-15T08:28:55.532Z,4.30
2023-03-15T08:31:23.096Z,4.10
2023-03-15T08:33:50.089Z,4.80
2023-03-15T08:36:16.813Z,4.00
2023-03-15T08:38:43.376Z,4.20
2023-03-15T08:41:10.247Z,3.70
2023-03-15T08:43:37.003Z,4.40
2023-03-15T08:46:03.902Z,4.10
2023-03-15T08:48:31.316Z,3.50
2023-03-15T08:51:03.921Z,3.50
2023-03-15T08:53:31.556Z,3.90
2023-03-15T08:55:58.655Z,3.80
2023-03-15T08:58:25.518Z,4.00
2023-03-15T09:00:53.009Z,3.40
2023-03-15T09:03:20.264Z,4.00
2023-03-15T09:05:47.006Z,3.40
2023-03-15T09:08:13.724Z,3.60
2023-03-15T09:10:40.240Z,3.60
2023-03-15T09:13:06.966Z,3.60
2023-03-15T09:15:33.511Z,3.60
2023-03-15T09:18:00.108Z,3.50
2023-03-15T09:20:27.997Z,3.40
2023-03-15T09:22:57.399Z,3.40
2023-03-15T09:25:25.783Z,3.20
2023-03-15T09:27:52.847Z,3.20
2023-03-15T09:30:19.736Z,3.60
2023-03-15T09:32:46.893Z,3.70
2023-03-15T09:35:16.308Z,3.80
2023-03-15T09:37:42.898Z,3.00
2023-03-15T09:40:26.930Z,2.40
2023-03-15T09:43:01.394Z,3.50
2023-03-15T09:45:40.796Z,3.30
2023-03-15T09:48:16.302Z,3.00
2023-03-15T09:50:50.252Z,3.20
2023-03-15T09:53:33.291Z,2.90
2023-03-15T09:55:59.915Z,3.40
2023-03-15T09:58:35.206Z,3.00
2023-03-15T10:01:13.942Z,2.50
2023-03-15T10:03:48.458Z,3.10
2023-03-15T10:06:19.402Z,3.00
2023-03-15T10:08:46.999Z,3.20
2023-03-15T10:11:22.614Z,3.00
2023-03-15T10:14:13.984Z,3.40
2023-03-15T10:16:43.616Z,3.10
2023-03-15T10:19:27.867Z,3.60
2023-03-15T10:22:03.522Z,2.80
2023-03-15T10:24:33.075Z,3.00
2023-03-15T10:27:13.628Z,3.40
2023-03-15T10:29:40.767Z,3.10
2023-03-15T10:32:17.633Z,2.70
2023-03-15T10:34:52.746Z,3.30
2023-03-15T10:37:23.127Z,3.10
2023-03-15T10:39:56.369Z,2.90
2023-03-15T10:42:33.224Z,3.10
2023-03-15T10:45:22.306Z,2.90
2023-03-15T10:47:59.680Z,3.20
2023-03-15T10:50:30.428Z,2.90
2023-03-15T10:53:02.879Z,2.80
2023-03-15T10:55:30.757Z,3.50
2023-03-15T10:57:59.506Z,3.40
2023-03-15T11:04:42.319Z,3.00
2023-03-15T11:07:13.565Z,3.40
2023-03-15T11:09:44.849Z,2.80
2023-03-15T11:12:21.575Z,3.40
2023-03-15T11:14:58.422Z,3.30
2023-03-15T11:17:30.677Z,3.00
2023-03-15T11:22:33.842Z,2.80
2023-03-15T11:25:01.947Z,3.10
2023-03-15T11:27:31.839Z,2.70
2023-03-15T11:30:01.939Z,2.60
2023-03-15T11:32:32.029Z,2.70
2023-03-15T11:35:06.243Z,2.90
2023-03-15T11:38:14.493Z,3.10
2023-03-15T11:40:53.644Z,3.20
2023-03-15T11:44:02.159Z,2.70
2023-03-15T11:46:36.872Z,3.10
2023-03-15T11:49:27.052Z,2.70
2023-03-15T11:51:57.020Z,2.70
2023-03-15T11:54:28.583Z,3.30
2023-03-15T11:57:04.535Z,2.70
2023-03-15T11:59:40.249Z,2.90
2023-03-15T12:02:11.456Z,2.60
2023-03-15T12:04:44.513Z,2.20
2023-03-15T12:07:15.449Z,2.40
2023-03-15T12:09:49.961Z,2.80
2023-03-15T12:12:24.045Z,3.00
2023-03-15T12:15:05.407Z,2.60
2023-03-15T12:17:56.322Z,2.70
2023-03-15T12:20:40.885Z,3.10
2023-03-15T12:23:19.986Z,2.80
2023-03-15T12:25:55.427Z,3.20
2023-03-15T12:28:44.167Z,2.80
2023-03-15T12:31:14.483Z,3.10
2023-03-15T12:33:52.839Z,3.30
2023-03-15T12:36:40.075Z,3.70
2023-03-15T12:39:16.909Z,3.10
2023-03-15T12:41:47.411Z,3.20
2023-03-15T12:44:33.747Z,3.00
2023-03-15T12:47:04.016Z,2.80
2023-03-15T12:49:39.625Z,2.30
2023-03-15T12:52:34.391Z,2.60
2023-03-15T12:55:18.283Z,3.00
2023-03-15T12:57:53.983Z,3.00
2023-03-15T13:00:23.674Z,2.70
2023-03-15T13:03:19.872Z,2.40
2023-03-15T13:06:03.898Z,3.70
2023-03-15T13:08:44.384Z,2.70
2023-03-15T13:11:23.719Z,2.70
2023-03-15T13:14:00.494Z,2.70
2023-03-15T13:16:46.755Z,3.70
2023-03-15T13:19:19.951Z,2.60
2023-03-15T13:22:07.082Z,2.50
2023-03-15T13:25:06.133Z,2.40
2023-03-15T13:28:11.843Z,2.30
2023-03-15T13:30:47.250Z,2.70
2023-03-15T13:33:26.550Z,2.50
2023-03-15T13:36:01.289Z,2.50
2023-03-15T13:38:31.471Z,3.00
2023-03-15T13:41:05.298Z,2.40
2023-03-15T13:43:37.302Z,2.40
2023-03-15T13:46:09.244Z,2.80
2023-03-15T13:48:47.580Z,2.10
2023-03-15T13:51:28.514Z,2.80
2023-03-15T13:54:02.410Z,2.60
2023-03-15T13:56:46.979Z,3.10
2023-03-15T13:59:18.015Z,2.00
2023-03-15T14:01:46.578Z,2.80
2023-03-15T14:04:18.481Z,2.50
2023-03-15T14:06:47.837Z,2.90
2023-03-15T14:09:28.277Z,2.60
2023-03-15T14:12:05.818Z,3.50
2023-03-15T14:14:38.770Z,3.80
2023-03-15T14:17:18.183Z,2.80
2023-03-15T14:19:55.962Z,2.70
2023-03-15T14:22:24.927Z,2.50
2023-03-15T14:24:54.199Z,3.20
2023-03-15T14:27:27.011Z,3.30
2023-03-15T14:29:59.032Z,3.10
2023-03-15T14:32:31.677Z,2.80
2023-03-15T14:35:21.524Z,2.70
2023-03-15T14:38:04.343Z,2.80
2023-03-15T14:40:35.576Z,2.50
2023-03-15T14:43:06.740Z,2.40
2023-03-15T14:45:38.319Z,2.50
2023-03-15T14:48:12.117Z,2.40
2023-03-15T14:50:45.792Z,2.70
2023-03-15T14:53:19.086Z,2.20
2023-03-15T14:55:47.361Z,2.00
2023-03-15T14:58:21.306Z,2.80
2023-03-15T15:00:52.769Z,3.00
2023-03-15T15:03:34.460Z,2.80
2023-03-15T15:06:03.088Z,2.60
2023-03-15T15:08:32.743Z,3.30
2023-03-15T15:11:01.238Z,3.30
2023-03-15T15:13:31.734Z,3.10
2023-03-15T15:16:00.012Z,2.90
2023-03-15T15:18:30.373Z,2.30
2023-03-15T15:21:18.908Z,3.10
2023-03-15T15:23:58.065Z,3.10
2023-03-15T15:26:30.907Z,3.20
2023-03-15T15:28:59.792Z,3.70
2023-03-15T15:31:29.202Z,2.90
2023-03-15T15:33:57.583Z,3.60
2023-03-15T15:36:52.247Z,3.10
2023-03-15T15:39:29.745Z,3.50
2023-03-15T15:41:57.867Z,4.00
2023-03-15T15:44:27.329Z,3.50
2023-03-15T15:46:55.958Z,3.80
2023-03-15T15:49:24.087Z,6.50
2023-03-15T15:51:52.278Z,4.60
2023-03-15T15:54:26.161Z,5.40
2023-03-15T15:56:57.866Z,5.70
2023-03-15T15:59:26.308Z,5.20
2023-03-15T16:02:03.254Z,4.10
2023-03-15T16:04:32.678Z,4.00
2023-03-15T16:07:04.243Z,5.20
2023-03-15T16:12:12.555Z,5.10
2023-03-15T16:14:41.773Z,4.60
2023-03-15T16:17:24.062Z,4.60
2023-03-15T16:19:52.686Z,5.00
2023-03-15T16:22:22.848Z,5.70
2023-03-15T16:24:55.200Z,5.00
2023-03-15T16:27:26.964Z,6.40
2023-03-15T16:29:55.889Z,5.00
2023-03-15T16:32:41.017Z,5.00
2023-03-15T16:35:15.751Z,5.30
2023-03-15T16:37:45.971Z,5.70
2023-03-15T16:40:35.312Z,5.10
2023-03-15T16:43:06.365Z,5.30
2023-03-15T16:45:34.453Z,5.70
2023-03-15T16:48:02.714Z,5.70
2023-03-15T16:50:32.585Z,4.60
2023-03-15T16:53:05.475Z,5.10
2023-03-15T16:55:34.006Z,5.40
2023-03-15T16:58:11.645Z,5.50
2023-03-15T17:00:39.719Z,5.40
2023-03-15T17:03:08.264Z,6.10
2023-03-15T17:05:36.780Z,5.10
2023-03-15T17:08:05.191Z,7.30
2023-03-15T17:10:33.264Z,6.60
2023-03-15T17:13:02.783Z,7.20
2023-03-15T17:15:31.258Z,7.30
2023-03-15T17:18:00.340Z,7.30
2023-03-15T17:20:29.882Z,7.90
2023-03-15T17:23:04.881Z,7.20
2023-03-15T17:25:34.324Z,7.30
2023-03-15T17:28:02.606Z,7.30
2023-03-15T17:30:36.345Z,6.30
2023-03-15T17:33:05.343Z,6.70
2023-03-15T17:35:39.918Z,7.30
2023-03-15T17:38:19.027Z,7.70
2023-03-15T17:40:47.488Z,8.80
2023-03-15T17:43:17.024Z,9.10
2023-03-15T17:45:45.860Z,9.70
2023-03-15T17:48:14.360Z,11.20
2023-03-15T17:50:44.265Z,10.70
2023-03-15T17:53:20.269Z,11.70
2023-03-15T17:55:49.143Z,12.20
2023-03-15T17:58:22.545Z,10.30
2023-03-15T18:00:52.720Z,11.60
2023-03-15T18:03:21.837Z,11.80
2023-03-15T18:05:50.695Z,9.10
2023-03-15T18:08:21.317Z,11.30
2023-03-15T18:10:52.177Z,11.10
2023-03-15T18:13:22.076Z,11.10
2023-03-15T18:15:51.305Z,10.40
2023-03-15T18:18:20.632Z,12.90
2023-03-15T18:20:49.623Z,12.20
2023-03-15T18:23:18.979Z,13.80
2023-03-15T18:25:47.235Z,15.00
2023-03-15T18:28:15.471Z,13.10
2023-03-15T18:30:44.812Z,15.70
2023-03-15T18:33:14.200Z,17.30
2023-03-15T18:35:42.587Z,19.60
2023-03-15T18:38:10.670Z,23.10
2023-03-15T18:40:38.890Z,23.40
2023-03-15T18:43:07.059Z,20.10
2023-03-15T18:45:36.572Z,17.60
2023-03-15T18:48:05.100Z,17.90
2023-03-15T18:50:34.137Z,16.50
2023-03-15T18:53:03.917Z,18.40
2023-03-15T18:55:33.701Z,19.80
2023-03-15T18:58:02.250Z,21.20
2023-03-15T19:04:36.215Z,19.60
2023-03-15T19:07:04.428Z,20.10
2023-03-15T19:09:33.715Z,19.20
2023-03-15T19:12:02.147Z,20.80
2023-03-15T19:14:30.399Z,18.90
2023-03-15T19:17:00.296Z,19.50
2023-03-15T19:19:28.919Z,20.00
2023-03-15T19:21:57.435Z,19.80
2023-03-15T19:24:25.480Z,20.80
2023-03-15T19:26:53.894Z,20.20
2023-03-15T19:29:21.929Z,19.80
2023-03-15T19:31:50.104Z,18.90
2023-03-15T19:34:18.505Z,22.00
2023-03-15T19:36:46.677Z,24.50
2023-03-15T19:39:14.740Z,25.30
2023-03-15T19:41:44.596Z,23.10
2023-03-15T19:44:12.638Z,24.70
2023-03-15T19:46:41.139Z,22.60
2023-03-15T19:49:09.496Z,27.60
2023-03-15T19:51:37.756Z,24.90
2023-03-15T19:54:06.023Z,26.30
2023-03-15T19:56:34.104Z,23.20
2023-03-15T19:59:02.400Z,22.50
2023-03-15T20:01:30.554Z,22.10
2023-03-15T20:03:58.825Z,23.00
2023-03-15T20:06:26.948Z,22.00
2023-03-15T20:08:55.722Z,21.20
2023-03-15T20:11:29.293Z,21.20
2023-03-15T20:13:57.340Z,21.00
2023-03-15T20:16:25.548Z,21.10
2023-03-15T20:18:55.778Z,20.80
2023-03-15T20:21:24.163Z,21.10
2023-03-15T20:23:52.427Z,21.10
2023-03-15T20:26:22.846Z,20.00
2023-03-15T20:28:51.115Z,22.50
2023-03-15T20:31:19.683Z,22.80
2023-03-15T20:33:50.867Z,23.10
2023-03-15T20:36:19.677Z,24.50
2023-03-15T20:38:48.010Z,24.70
2023-03-15T20:41:18.430Z,24.40
2023-03-15T20:43:46.618Z,25.10
2023-03-15T20:46:16.750Z,24.00
2023-03-15T20:48:45.246Z,26.50
2023-03-15T20:51:13.301Z,25.40
2023-03-15T20:53:41.390Z,30.10
2023-03-15T20:56:09.358Z,29.00
2023-03-15T20:58:37.275Z,28.00
2023-03-15T21:01:08.930Z,26.60
2023-03-15T21:03:37.955Z,26.80
2023-03-15T21:06:06.528Z,26.80
2023-03-15T21:08:34.896Z,25.60
2023-03-15T21:11:07.165Z,26.10
2023-03-15T21:13:36.064Z,25.50
2023-03-15T21:16:04.829Z,26.10
2023-03-15T21:18:33.785Z,25.70
2023-03-15T21:21:08.210Z,26.70
2023-03-15T21:23:36.294Z,26.00
2023-03-15T21:26:07.522Z,25.00
2023-03-15T21:28:35.607Z,25.30
2023-03-15T21:31:04.137Z,24.70
2023-03-15T21:33:32.895Z,26.00
2023-03-15T21:36:00.953Z,25.60
2023-03-15T21:38:31.495Z,23.30
2023-03-15T21:41:00.508Z,23.60
2023-03-15T21:43:31.154Z,21.90
2023-03-15T21:46:01.603Z,21.80
2023-03-15T21:48:30.646Z,21.20
2023-03-15T21:50:59.493Z,20.60
2023-03-15T21:53:29.255Z,19.30
2023-03-15T21:55:58.544Z,19.30
2023-03-15T21:58:28.036Z,20.70
2023-03-15T22:01:01.305Z,18.00
2023-03-15T22:03:30.283Z,18.60
2023-03-15T22:05:58.189Z,17.00
2023-03-15T22:08:26.238Z,18.10
2023-03-15T22:10:55.887Z,17.60
2023-03-15T22:13:24.855Z,17.90
2023-03-15T22:15:53.509Z,17.70
2023-03-15T22:18:22.077Z,17.70
2023-03-15T22:20:51.604Z,18.00
2023-03-15T22:23:20.065Z,18.40
2023-03-15T22:25:48.871Z,16.70
2023-03-15T22:28:17.181Z,17.60
2023-03-15T22:30:49.125Z,17.90
2023-03-15T22:33:19.782Z,17.80
2023-03-15T22:35:55.799Z,16.50
2023-03-15T22:38:25.488Z,16.30
2023-03-15T22:41:02.350Z,15.50
2023-03-15T22:43:30.597Z,15.60
2023-03-15T22:45:58.652Z,16.80
2023-03-15T22:48:27.041Z,16.30
2023-03-15T22:51:03.757Z,16.20
2023-03-15T22:53:32.384Z,17.10
2023-03-15T22:56:00.901Z,15.90
2023-03-15T22:58:28.901Z,17.60
2023-03-15T23:00:56.955Z,15.60
2023-03-15T23:03:26.527Z,16.00
2023-03-15T23:05:55.193Z,16.00
2023-03-15T23:08:24.271Z,17.30
2023-03-15T23:10:52.746Z,17.30
2023-03-15T23:13:21.599Z,17.10
2023-03-15T23:15:49.719Z,18.40
2023-03-15T23:18:17.780Z,17.90
2023-03-15T23:20:45.828Z,17.90
2023-03-15T23:23:14.079Z,19.90
2023-03-15T23:25:43.171Z,18.40
2023-03-15T23:28:11.256Z,17.90
2023-03-15T23:30:40.153Z,17.40
2023-03-15T23:33:08.759Z,17.00
2023-03-15T23:35:37.343Z,15.40
2023-03-15T23:38:05.366Z,16.10
2023-03-15T23:40:33.584Z,16.50
2023-03-15T23:43:01.897Z,18.00
2023-03-15T23:45:30.319Z,16.10
2023-03-15T23:47:58.854Z,16.80
2023-03-15T23:50:27.638Z,16.60
2023-03-15T23:52:56.822Z,16.80
2023-03-15T23:55:25.577Z,17.10
2023-03-15T23:57:53.880Z,17.40
